x

Eel River - 17nm Wsw Of Eureka, Ca (46022) Wave Buoy

3:50pm - Mon 23rd Oct 2017 All times are PDT. -7 hours from GMT.

  • Sig Wave height 9.8ft
  • Swell Direction
  • Peak Period 12s
  • Average Period 9s
  • Wind
    13mph, 18mph gusts
  • Sea Temp 51°f
  • Air Temp 55°f
  • Sea Pressure 1025.8mb
  • Eel River - 17nm Wsw Of Eureka, Ca
  • Eel River - 17nm Wsw Of Eureka, Ca

More Historic Weather Station data

Upgrade to MSW Pro to gain access to the past 30 days of data for over 8000 Wavebouys and Weather Stations around the globe.

Join

Comparision Forecast

View Surf forecast
   
Mon 10/23 3:50pm 10ft 12s 9s 13 18 mph 1025.8mb 51f 55f
2:50pm 11ft 13s 9s 16 20 mph 1026mb 51f 55f
1:50pm 10.5ft 12s 9s 7 9 mph 1027.4mb 51f 54f
12:50pm 10.5ft 13s 9s 16 18 mph 1027.7mb 51f 54f
11:50am 10.5ft 13s 9s 13 18 mph 1028.5mb 51f 54f
10:50am 12ft 13s 10s 13 16 mph 1028.9mb 51f 54f
9:50am 11.5ft 14s 9s 16 18 mph 1029.1mb 51f 53f
8:50am 11ft 13s 9s 13 16 mph 1028.8mb 51f 54f
7:50am 12.5ft 13s 10s 16 18 mph 1028.4mb 51f 54f
6:50am 12.5ft 14s 10s 16 18 mph 1028.4mb 51f 53f
5:50am 12ft 14s 9s 16 18 mph 1028.3mb 51f 53f
4:50am 11ft 11s 9s 16 20 mph 1028.4mb 51f 53f
3:50am 11ft 13s 10s 13 16 mph 1028.9mb 51f 53f
2:50am 9ft 11s 9s 9 11 mph 1028.9mb 51f 53f
1:50am 10.5ft 12s 9s 4 7 mph 1029.5mb 51f 53f
12:50am 11ft 11s 9s 7 9 mph 1029.7mb 51f 53f
Sun 10/22 11:50pm 10ft 11s 9s 7 9 mph 1029.7mb 51f 53f
10:50pm 11ft 11s 9s 4 7 mph 1030.1mb 51f 53f
9:50pm 10ft 11s 9s 4 7 mph 1030.2mb 51f 53f
8:50pm 12ft 11s 9s 7 9 mph 1030.5mb 51f 54f
7:50pm 10ft 11s 9s 7 9 mph 1030.3mb 52f 56f
6:50pm 9.5ft 11s 9s 4 7 mph 1029.8mb 51f 55f
5:50pm 11ft 11s 9s 4 9 mph 1029.5mb 52f 55f
4:50pm 11ft 12s 9s 2 4 mph 1029.2mb 52f 56f
3:50pm 8.5ft 12s 9s 4 4 mph 1029.2mb 51f 55f
2:50pm 9.5ft 12s 9s 7 9 mph 1029.3mb 51f 55f
1:50pm 9ft 13s 9s 7 9 mph 1029.6mb 51f 55f
12:50pm 9.5ft 12s 9s 4 7 mph 1029.9mb 51f 54f
11:50am 9.5ft 13s 9s 7 9 mph 1029.8mb 51f 55f
10:50am 9.5ft 13s 9s 7 9 mph 1029.4mb 51f 54f
9:50am 11ft 11s 9s 11 13 mph 1028.6mb 51f 54f
8:50am 11ft 12s 9s 9 13 mph 1028.2mb 51f 54f
7:50am 12.5ft 11s 9s 11 18 mph 1027.2mb 51f 55f
6:50am 12.5ft 12s 9s 11 16 mph 1027.1mb 51f 54f
5:50am 12.5ft 11s 9s 11 18 mph 1026.9mb 51f 54f
4:50am 12ft 12s 9s 13 18 mph 1026.6mb 51f 55f
3:50am 11ft 12s 9s 13 18 mph 1026.2mb 52f 55f
2:50am 11.5ft 11s 9s 16 18 mph 1025.9mb 52f 55f
1:50am 10ft 12s 8s 18 20 mph 1025.9mb 52f 55f
12:50am 9.5ft 12s 8s 20 25 mph 1025.4mb 52f 55f
Sat 10/21 11:50pm 10ft 13s 9s 16 18 mph 1025.8mb 52f 55f
10:50pm 10ft 13s 9s 13 18 mph 1024.8mb 52f 54f
9:50pm 9ft 13s 9s 16 18 mph 1024.2mb 51f 54f
8:50pm 9.5ft 13s 9s 13 16 mph 1024.2mb 51f 54f
7:50pm 10.5ft 14s 9s 18 20 mph 1023.4mb 51f 54f
6:50pm 11.5ft 14s 9s 20 22 mph 1023.3mb 51f 54f
5:50pm 12ft 14s 9s 20 25 mph 1023mb 51f 54f
4:50pm 11ft 14s 8s 20 25 mph 1022.7mb 51f 54f
3:50pm 11.5ft 14s 8s 18 22 mph 1022.1mb 51f 54f
2:50pm 12.5ft 11s 8s 18 22 mph 1022.1mb 51f 54f
1:50pm 13ft 11s 8s 22 29 mph 1022mb 51f 54f
12:50pm 13ft 12s 8s 20 27 mph 1022.2mb 51f 53f
11:50am 12ft 13s 8s 22 29 mph 1021.8mb 50f 53f
10:50am 11ft 14s 8s 22 27 mph 1021.4mb 51f 53f
9:50am 12ft 13s 8s 27 34 mph 1020.5mb 51f 54f
8:50am 11.5ft 12s 8s 25 31 mph 1020.1mb 51f 53f
7:50am 12.5ft 13s 9s 25 31 mph 1019.6mb 51f 53f
6:50am 13ft 14s 9s 22 27 mph 1019.8mb 51f 53f
5:50am 12ft 11s 9s 20 27 mph 1020.3mb 51f 53f
4:50am 12ft 15s 9s 16 22 mph 1020.1mb 51f 53f
3:50am 13ft 14s 10s 11 16 mph 1020.4mb 51f 51f
2:50am 15ft 15s 10s 13 22 mph 1020.7mb 50f 50f
1:50am 16ft 15s 11s 13 18 mph 1020.9mb 50f 50f
12:50am 14ft 15s 10s 11 18 mph 1020.9mb 50f 50f
Fri 10/20 11:50pm 14.5ft 15s 10s 11 18 mph 1020.8mb 51f 50f
10:50pm 15ft 15s 10s 9 13 mph 1021.4mb 51f 51f
9:50pm 14.5ft 16s 10s 11 16 mph 1020.8mb 52f 52f
8:50pm 14ft 16s 10s 11 13 mph 1020.9mb 52f 52f
7:50pm 14.5ft 14s 10s 9 11 mph 1020.5mb 52f 52f
6:50pm 15.5ft 15s 11s 9 11 mph 1020.2mb 52f 52f
5:50pm 17ft 13s 11s 9 11 mph 1020.4mb 52f 52f
4:50pm 17ft 15s 11s 7 11 mph 1020mb 51f 52f
3:50pm 17ft 15s 11s 9 13 mph 1020.1mb 51f 52f
2:50pm 19ft 16s 11s 11 16 mph 1019.5mb 50f 52f
1:50pm 20ft 14s 11s 11 16 mph 1019.2mb 50f 52f
12:50pm 17ft 16s 11s 11 13 mph 1019.1mb 50f 51f
11:50am 19.5ft 17s 12s 11 13 mph 1018.6mb 50f 52f
10:50am 18.5ft 16s 12s 11 13 mph 1018mb 51f 52f
9:50am 16ft 16s 10s 9 13 mph 1017.4mb 50f 52f
8:50am 17.5ft 17s 11s 13 16 mph 1016.6mb 50f 53f
7:50am 18ft 17s 10s 9 13 mph 1015.7mb 51f 51f
6:50am 17ft 15s 10s 9 13 mph 1015.1mb 51f 51f
5:50am 19ft 17s 11s 9 13 mph 1014.8mb 51f 51f
4:50am 20.5ft 17s 12s 4 7 mph 1014.1mb 51f 51f
3:50am 17ft 17s 11s 9 20 mph 1013.3mb 52f 52f
2:50am 19ft 17s 12s 9 13 mph 1011.9mb 52f 52f
1:50am 17ft 19s 11s 9 11 mph 1011.1mb 52f 53f
12:50am 16.5ft 19s 12s 11 13 mph 1010.9mb 52f 53f